Currently 89°F in Lake Elsinore, California, USA
89°F
91°F / 60°F
9 mph SW
0.00"
Wednesday, May 24, 2017 4:20 PM PDT

Lake Elsinore, California Weather Summary
Last 36 Hours

Temperature Winds Hourly Humidity Dewpoint
Time Report Norm Report Norm Max Gusts Precip. Rpt. Norm Rpt. Norm Pressure
1Wed 04:20 PM  89.3°F  81°F  9 mph SW  6 mph  19 mph  0.00"  17%  44%  37°F  56°F  29.80"
Wed 04:00 PM  90.2°F  82°F  calm  6 mph  19 mph  0.00"  18%  43%  39°F  56°F  29.80"
Wed 03:00 PM  90.8°F  82°F  calm  5 mph  17 mph  0.00"  12%  44%  28°F  57°F  29.83"
Wed 02:00 PM  91.1°F  81°F  2 mph SE  4 mph  13 mph  0.00"  15%  44%  35°F  56°F  29.84"
2Wed 01:52 PM  91.5°F  81°F  7 mph S  4 mph  13 mph  ----  14%  44%  34°F  56°F  29.85"
Wed 01:00 PM  88.6°F  79°F  2 mph SE  3 mph  8 mph  0.00"  18%  47%  38°F  56°F  29.85"
Wed 12:00 PM  84.2°F  76°F  calm  3 mph  7 mph  0.00"  27%  52%  45°F  56°F  29.88"
Wed 11:00 AM  79.6°F  72°F  3 mph S  3 mph  7 mph  0.00"  38%  59%  51°F  56°F  29.90"
Wed 10:00 AM  80.0°F  68°F  4 mph NE  2 mph  7 mph  0.00"  36%  67%  49°F  56°F  29.91"
Wed 09:00 AM  72.9°F  64°F  2 mph E  2 mph  6 mph  0.00"  51%  77%  53°F  56°F  29.90"
Wed 08:00 AM  70.9°F  60°F  2 mph SE  1 mph  5 mph  0.00"  57%  87%  54°F  56°F  29.89"
Wed 07:00 AM  62.0°F  56°F  calm  1 mph  2 mph  0.00"  71%  92%  52°F  54°F  29.89"
Wed 06:00 AM  60.2°F  55°F  1 mph W  1 mph  2 mph  0.00"  65%  92%  48°F  52°F  29.90"
3Wed 05:46 AM  60.0°F  55°F  2 mph W  1 mph  2 mph  ----  67%  92%  49°F  52°F  29.89"
Wed 05:00 AM  60.5°F  55°F  calm  1 mph  none  0.00"  64%  91%  48°F  53°F  29.90"
Wed 04:00 AM  62.0°F  56°F  calm  1 mph  none  0.00"  61%  90%  48°F  53°F  29.90"
Wed 03:00 AM  63.7°F  57°F  calm  1 mph  3 mph  0.00"  60%  89%  49°F  53°F  29.91"
Wed 02:00 AM  65.3°F  57°F  calm  1 mph  3 mph  0.00"  55%  88%  48°F  54°F  29.93"
Wed 01:00 AM  67.4°F  58°F  calm  1 mph  3 mph  0.00"  51%  87%  48°F  54°F  29.94"
Wed 12:00 AM  69.5°F  59°F  calm  1 mph  3 mph  0.00"  50%  86%  50°F  55°F  29.95"
Tue 11:00 PM  71.9°F  61°F  calm  1 mph  4 mph  0.00"  59%  83%  56°F  55°F  29.96"
Tue 10:00 PM  74.3°F  62°F  calm  2 mph  6 mph  0.00"  56%  80%  57°F  56°F  29.95"
Tue 09:00 PM  77.4°F  64°F  1 mph SE  3 mph  4 mph  0.00"  50%  75%  57°F  56°F  29.94"
Tue 08:00 PM  81.2°F  67°F  2 mph E  3 mph  7 mph  0.00"  44%  68%  56°F  56°F  29.93"
Tue 07:00 PM  86.4°F  72°F  3 mph E  5 mph  9 mph  0.00"  34%  58%  54°F  56°F  29.92"
Tue 06:00 PM  92.9°F  77°F  4 mph SW  5 mph  12 mph  0.00"  16%  51%  39°F  57°F  29.91"
Tue 05:00 PM  97.9°F  79°F  5 mph NW  6 mph  16 mph  0.00"  11%  47%  33°F  57°F  29.92"
Tue 04:00 PM  98.2°F  81°F  calm  6 mph  18 mph  0.00"  12%  44%  36°F  57°F  29.93"
Tue 03:00 PM  100.0°F  82°F  7 mph SW  5 mph  16 mph  0.00"  15%  44%  42°F  57°F  29.94"
Tue 02:00 PM  101.9°F  81°F  4 mph SW  4 mph  15 mph  0.00"  12%  44%  38°F  56°F  29.93"
Tue 01:00 PM  102.4°F  78°F  3 mph S  3 mph  7 mph  0.00"  6%  47%  22°F  56°F  29.93"
Tue 12:00 PM  97.5°F  76°F  2 mph SE  3 mph  5 mph  0.00"  6%  52%  19°F  56°F  29.96"
Tue 11:00 AM  91.3°F  72°F  1 mph SE  3 mph  6 mph  0.00"  17%  59%  39°F  56°F  29.96"
Tue 10:00 AM  87.0°F  68°F  5 mph SE  2 mph  4 mph  0.00"  24%  67%  44°F  56°F  29.98"
Tue 09:00 AM  80.7°F  64°F  calm  2 mph  4 mph  0.00"  33%  77%  48°F  57°F  29.99"
Tue 08:00 AM  75.7°F  60°F  calm  1 mph  1 mph  0.00"  41%  87%  50°F  56°F  30.00"
Tue 07:00 AM  63.1°F  56°F  calm  1 mph  2 mph  0.00"  64%  92%  50°F  54°F  29.99"
Tue 06:00 AM  61.9°F  55°F  calm  1 mph  none  0.00"  65%  92%  50°F  53°F  29.98"
Tue 05:00 AM  62.5°F  55°F  calm  1 mph  1 mph  0.00"  63%  91%  49°F  53°F  29.97"

  1. Current weather data. No green row appears if the current weather data is also the high or low for the current day.
  2. High temperature for the current day.
  3. Low temperature for the current day.

The Lake Elsinore, California weather pages are a service of WeatherCurrents. Lake Elsinore is located south of Corona and north of the Temecula Valley, in southwestern Riverside County, California.
Copyright ©Wed May 24 16:20:58 PDT 2017  WeatherCurrents. All rights reserved. - Submit questions and comments - Privacy Policy

This page automatically refreshes every 10 minutes.